Time;durP1;ratioP1;P1;durP2;ratioP2;P2;SDS_P1;SDS_P2;PMS_P1;PMS_P2;Temp;Humidity;BMP_temperature;BMP_pressure;BME280_temperature;BME280_humidity;BME280_pressure;Samples;Min_cycle;Max_cycle;Signal;HPM_P1;HPM_P2
2022/07/17 00:01:39;;;;;;;2.97;2.78;;;;;;;;;;5035369;28;20021;-67
2022/07/17 00:04:04;;;;;;;3.00;2.47;;;;;;;;;;5050465;28;20048;-65
2022/07/17 00:06:30;;;;;;;2.38;2.17;;;;;;;;;;5050707;28;20645;-66
2022/07/17 00:08:55;;;;;;;4.10;2.78;;;;;;;;;;5043539;28;20477;-66
2022/07/17 00:11:20;;;;;;;3.33;2.65;;;;;;;;;;5049684;28;20017;-65
2022/07/17 00:13:46;;;;;;;4.30;3.90;;;;;;;;;;5050812;28;20409;-65
2022/07/17 00:16:11;;;;;;;6.00;4.22;;;;;;;;;;5050750;28;20165;-66
2022/07/17 00:18:36;;;;;;;4.30;3.90;;;;;;;;;;5052734;28;20147;-66
2022/07/17 00:21:01;;;;;;;5.25;4.18;;;;;;;;;;5051822;28;20506;-66
2022/07/17 00:23:27;;;;;;;9.25;5.60;;;;;;;;;;5054803;28;20028;-65
2022/07/17 00:25:52;;;;;;;5.03;4.25;;;;;;;;;;5054088;28;20491;-65
2022/07/17 00:28:17;;;;;;;3.92;2.53;;;;;;;;;;5039250;28;20025;-64
2022/07/17 00:30:42;;;;;;;3.25;2.45;;;;;;;;;;5036396;28;20021;-65
2022/07/17 00:33:08;;;;;;;5.80;2.50;;;;;;;;;;5054465;28;20052;-66
2022/07/17 00:35:33;;;;;;;3.65;2.95;;;;;;;;;;5052924;28;20037;-64
2022/07/17 00:37:58;;;;;;;2.97;2.72;;;;;;;;;;5035477;28;20111;-65
2022/07/17 00:40:24;;;;;;;2.83;2.65;;;;;;;;;;5054403;28;20107;-64
2022/07/17 00:42:50;;;;;;;2.47;2.22;;;;;;;;;;5054013;28;20562;-64
2022/07/17 00:45:15;;;;;;;3.00;2.45;;;;;;;;;;5054646;28;20056;-65
2022/07/17 00:47:55;;;;;;;2.20;2.10;;;;;;;;;;5046467;28;20156;-64
2022/07/17 00:50:21;;;;;;;2.85;2.60;;;;;;;;;;5054178;28;20479;-65
2022/07/17 00:52:47;;;;;;;2.88;2.78;;;;;;;;;;5054113;28;20048;-65
2022/07/17 00:55:12;;;;;;;3.03;2.58;;;;;;;;;;5053696;28;20478;-65
2022/07/17 00:57:39;;;;;;;4.22;2.53;;;;;;;;;;5055441;28;20052;-65
2022/07/17 01:00:09;;;;;;;2.92;2.50;;;;;;;;;;5053225;28;20033;-65
2022/07/17 01:02:35;;;;;;;11.60;2.60;;;;;;;;;;5054278;28;20056;-65
2022/07/17 01:05:00;;;;;;;2.35;2.10;;;;;;;;;;5053301;28;20444;-65
2022/07/17 01:07:25;;;;;;;3.83;2.83;;;;;;;;;;5054313;28;20037;-65
2022/07/17 01:09:50;;;;;;;3.97;2.50;;;;;;;;;;5054474;28;20122;-65
2022/07/17 01:12:16;;;;;;;3.72;2.83;;;;;;;;;;5054256;28;20110;-65
2022/07/17 01:14:41;;;;;;;2.80;2.08;;;;;;;;;;5036151;28;20033;-65
2022/07/17 01:17:07;;;;;;;2.65;2.45;;;;;;;;;;5054429;28;20029;-65
2022/07/17 01:19:32;;;;;;;4.07;3.10;;;;;;;;;;5036257;28;20483;-65
2022/07/17 01:21:57;;;;;;;2.92;2.50;;;;;;;;;;5053562;28;20031;-65
2022/07/17 01:24:22;;;;;;;3.17;2.50;;;;;;;;;;5054511;28;20029;-65
2022/07/17 01:26:48;;;;;;;3.97;3.00;;;;;;;;;;5052106;28;20071;-65
2022/07/17 01:29:14;;;;;;;3.13;2.83;;;;;;;;;;5052005;28;20083;-66
2022/07/17 01:31:40;;;;;;;4.78;2.92;;;;;;;;;;5052248;28;20021;-66
2022/07/17 01:34:06;;;;;;;2.65;2.38;;;;;;;;;;5052738;28;20527;-66
2022/07/17 01:36:31;;;;;;;5.60;2.45;;;;;;;;;;5035923;28;20032;-66
2022/07/17 01:38:56;;;;;;;3.85;2.53;;;;;;;;;;5053386;28;20522;-66
2022/07/17 01:41:22;;;;;;;2.45;2.30;;;;;;;;;;5054009;28;20036;-65
2022/07/17 01:43:47;;;;;;;3.58;2.40;;;;;;;;;;5052869;28;20040;-65
2022/07/17 01:46:13;;;;;;;2.40;2.20;;;;;;;;;;5052571;28;20486;-66
2022/07/17 01:48:39;;;;;;;3.67;2.45;;;;;;;;;;5052628;28;20422;-65
2022/07/17 01:51:04;;;;;;;3.75;2.50;;;;;;;;;;5044127;28;20025;-66
2022/07/17 01:53:30;;;;;;;4.63;2.10;;;;;;;;;;5053258;28;20483;-65
2022/07/17 01:55:55;;;;;;;2.85;2.65;;;;;;;;;;5034992;28;20100;-65
2022/07/17 01:58:20;;;;;;;4.05;2.67;;;;;;;;;;5053531;28;20024;-64
2022/07/17 02:00:47;;;;;;;3.63;2.30;;;;;;;;;;5052494;28;20447;-65
2022/07/17 02:03:12;;;;;;;2.55;2.35;;;;;;;;;;5052836;28;20029;-65
2022/07/17 02:05:37;;;;;;;3.00;2.70;;;;;;;;;;5034474;28;20028;-65
2022/07/17 02:08:03;;;;;;;2.70;2.50;;;;;;;;;;5052473;28;20031;-65
2022/07/17 02:10:28;;;;;;;3.30;3.00;;;;;;;;;;5035553;28;20037;-65
2022/07/17 02:12:53;;;;;;;2.67;2.45;;;;;;;;;;5037234;28;20506;-65
2022/07/17 02:15:19;;;;;;;3.38;3.08;;;;;;;;;;5053066;28;20021;-66
2022/07/17 02:17:44;;;;;;;3.30;3.00;;;;;;;;;;5051756;28;20032;-65
2022/07/17 02:20:10;;;;;;;3.03;2.83;;;;;;;;;;5052227;28;20033;-65
2022/07/17 02:22:36;;;;;;;3.20;2.83;;;;;;;;;;5053028;28;20021;-65
2022/07/17 02:25:01;;;;;;;3.10;2.80;;;;;;;;;;5053279;28;20062;-65
2022/07/17 02:27:26;;;;;;;3.78;3.42;;;;;;;;;;5053036;28;20116;-66
2022/07/17 02:29:51;;;;;;;3.22;3.03;;;;;;;;;;5052366;28;20040;-66
2022/07/17 02:32:17;;;;;;;6.93;3.70;;;;;;;;;;5050732;28;20048;-66
2022/07/17 02:34:42;;;;;;;4.28;3.17;;;;;;;;;;5051495;28;20109;-66
2022/07/17 02:37:07;;;;;;;4.15;3.17;;;;;;;;;;5053530;28;20059;-65
2022/07/17 02:39:33;;;;;;;4.03;3.35;;;;;;;;;;5051725;28;20086;-65
2022/07/17 02:41:58;;;;;;;2.67;2.53;;;;;;;;;;5051610;28;20179;-65
2022/07/17 02:44:24;;;;;;;3.35;3.08;;;;;;;;;;5037979;28;20076;-65
2022/07/17 02:46:49;;;;;;;6.20;3.95;;;;;;;;;;5034663;28;20033;-65
2022/07/17 02:49:14;;;;;;;6.68;2.65;;;;;;;;;;5037457;28;20028;-65
2022/07/17 02:51:40;;;;;;;3.22;2.97;;;;;;;;;;5051578;28;20554;-65
2022/07/17 02:54:05;;;;;;;4.70;3.08;;;;;;;;;;5052167;28;20044;-65
2022/07/17 02:56:32;;;;;;;4.10;3.17;;;;;;;;;;5052222;28;20047;-65
2022/07/17 02:58:57;;;;;;;5.38;3.10;;;;;;;;;;5051293;28;20482;-64
2022/07/17 03:01:23;;;;;;;3.08;2.88;;;;;;;;;;5032402;28;20115;-64
2022/07/17 03:03:48;;;;;;;2.88;2.67;;;;;;;;;;5051622;28;20020;-65
2022/07/17 03:06:13;;;;;;;3.53;3.17;;;;;;;;;;5051345;28;20358;-66
2022/07/17 03:08:38;;;;;;;4.50;3.38;;;;;;;;;;5037355;28;20875;-64
2022/07/17 03:11:04;;;;;;;3.85;3.47;;;;;;;;;;5051434;28;20403;-65
2022/07/17 03:13:29;;;;;;;2.88;2.70;;;;;;;;;;5051528;28;20075;-65
2022/07/17 03:15:54;;;;;;;5.03;3.22;;;;;;;;;;5051127;28;20386;-64
2022/07/17 03:18:19;;;;;;;3.47;3.17;;;;;;;;;;5051136;28;20112;-65
2022/07/17 03:20:45;;;;;;;3.47;2.78;;;;;;;;;;5052318;28;20040;-65
2022/07/17 03:23:10;;;;;;;2.85;2.67;;;;;;;;;;5051366;28;20031;-64
2022/07/17 03:25:36;;;;;;;3.22;2.92;;;;;;;;;;5052221;28;20082;-65
2022/07/17 03:28:01;;;;;;;3.38;3.08;;;;;;;;;;5051442;28;20491;-64
2022/07/17 03:30:26;;;;;;;3.20;2.90;;;;;;;;;;5050559;28;20428;-65
2022/07/17 03:32:52;;;;;;;3.40;3.10;;;;;;;;;;5036761;28;20074;-65
2022/07/17 03:35:17;;;;;;;3.40;3.08;;;;;;;;;;5050998;28;20391;-65
2022/07/17 03:37:44;;;;;;;3.75;2.90;;;;;;;;;;5050585;28;20096;-65
2022/07/17 03:40:10;;;;;;;3.95;3.55;;;;;;;;;;5048152;28;20163;-65
2022/07/17 03:42:35;;;;;;;3.22;2.90;;;;;;;;;;5050911;28;20025;-65
2022/07/17 03:45:00;;;;;;;3.20;3.00;;;;;;;;;;5050632;28;20035;-65
2022/07/17 03:47:25;;;;;;;3.47;3.20;;;;;;;;;;5051697;28;20115;-65
2022/07/17 03:49:51;;;;;;;4.13;2.67;;;;;;;;;;5021361;28;20039;-65
2022/07/17 03:52:16;;;;;;;2.95;2.75;;;;;;;;;;5051453;28;20033;-65
2022/07/17 03:54:41;;;;;;;6.10;3.13;;;;;;;;;;5050624;28;20041;-65
2022/07/17 03:57:07;;;;;;;2.63;2.42;;;;;;;;;;5053793;28;20108;-65
2022/07/17 03:59:32;;;;;;;3.72;3.00;;;;;;;;;;5055376;28;20045;-65
2022/07/17 04:01:57;;;;;;;3.22;3.00;;;;;;;;;;5053758;28;20033;-65
2022/07/17 04:04:22;;;;;;;2.63;2.42;;;;;;;;;;5054200;28;20029;-64
2022/07/17 04:06:48;;;;;;;3.95;2.75;;;;;;;;;;5054561;28;20042;-64
2022/07/17 04:09:13;;;;;;;3.28;2.83;;;;;;;;;;5053296;28;20025;-65
2022/07/17 04:11:38;;;;;;;2.90;2.58;;;;;;;;;;5038726;28;20803;-65
2022/07/17 04:14:03;;;;;;;3.20;2.75;;;;;;;;;;5041250;28;20351;-64
2022/07/17 04:16:28;;;;;;;4.95;2.40;;;;;;;;;;5055619;28;20124;-64
2022/07/17 04:18:55;;;;;;;3.63;2.65;;;;;;;;;;5036154;28;20020;-64
2022/07/17 04:21:20;;;;;;;5.70;2.92;;;;;;;;;;5054723;28;20501;-65
2022/07/17 04:23:46;;;;;;;2.67;2.47;;;;;;;;;;5055232;28;20012;-65
2022/07/17 04:26:11;;;;;;;2.60;2.47;;;;;;;;;;5054419;28;20045;-65
2022/07/17 04:28:37;;;;;;;2.60;2.40;;;;;;;;;;5055144;28;20025;-65
2022/07/17 04:31:02;;;;;;;3.00;2.50;;;;;;;;;;5054453;28;20030;-65
2022/07/17 04:33:27;;;;;;;2.17;2.08;;;;;;;;;;5053424;28;20417;-66
2022/07/17 04:35:53;;;;;;;3.60;2.47;;;;;;;;;;5036010;28;20422;-65
2022/07/17 04:38:18;;;;;;;2.60;2.47;;;;;;;;;;5055032;28;20103;-65
2022/07/17 04:40:43;;;;;;;10.45;2.60;;;;;;;;;;5055281;28;20057;-65
2022/07/17 04:43:08;;;;;;;3.90;2.83;;;;;;;;;;5052416;28;20486;-65
2022/07/17 04:45:33;;;;;;;3.97;3.00;;;;;;;;;;5054456;28;20025;-65
2022/07/17 04:47:59;;;;;;;2.67;2.45;;;;;;;;;;5053929;28;20025;-67
2022/07/17 04:50:24;;;;;;;2.05;1.95;;;;;;;;;;5054065;28;20033;-65
2022/07/17 04:52:50;;;;;;;2.42;2.22;;;;;;;;;;5036313;28;20077;-66
2022/07/17 04:55:16;;;;;;;2.63;2.28;;;;;;;;;;5054947;28;20035;-65
2022/07/17 04:57:41;;;;;;;3.58;2.60;;;;;;;;;;5054361;28;20556;-66
2022/07/17 05:00:07;;;;;;;2.58;2.38;;;;;;;;;;5035166;28;20138;-65
2022/07/17 05:02:33;;;;;;;3.15;2.85;;;;;;;;;;5051639;28;20028;-66
2022/07/17 05:04:58;;;;;;;3.17;2.00;;;;;;;;;;5052293;28;20159;-66
2022/07/17 05:07:23;;;;;;;2.60;2.40;;;;;;;;;;5054098;28;20041;-64
2022/07/17 05:09:49;;;;;;;2.25;2.08;;;;;;;;;;5033764;28;20033;-64
2022/07/17 05:12:14;;;;;;;2.17;2.08;;;;;;;;;;5053680;28;20024;-64
2022/07/17 05:14:39;;;;;;;6.60;2.22;;;;;;;;;;5055313;28;20459;-65
2022/07/17 05:17:04;;;;;;;2.78;2.58;;;;;;;;;;5053530;28;20116;-64
2022/07/17 05:19:30;;;;;;;2.55;2.13;;;;;;;;;;5037012;28;20029;-65
2022/07/17 05:21:55;;;;;;;3.20;2.30;;;;;;;;;;5053345;28;20393;-66
2022/07/17 05:24:20;;;;;;;3.97;2.53;;;;;;;;;;5053148;28;20436;-66
2022/07/17 05:26:45;;;;;;;3.10;2.38;;;;;;;;;;5053990;28;20021;-66
2022/07/17 05:29:10;;;;;;;2.65;2.50;;;;;;;;;;5053783;28;20410;-66
2022/07/17 05:31:36;;;;;;;2.63;2.42;;;;;;;;;;5051212;28;20021;-66
2022/07/17 05:34:01;;;;;;;3.90;2.90;;;;;;;;;;5054483;28;20037;-66
2022/07/17 05:36:26;;;;;;;3.85;2.20;;;;;;;;;;5055538;28;20020;-66
2022/07/17 05:38:52;;;;;;;2.75;2.53;;;;;;;;;;5051888;28;20517;-66
2022/07/17 05:41:17;;;;;;;2.20;1.98;;;;;;;;;;5081432;28;20016;-65
2022/07/17 05:43:42;;;;;;;4.03;2.60;;;;;;;;;;5074105;28;20024;-67
2022/07/17 05:46:07;;;;;;;7.47;2.53;;;;;;;;;;5073347;28;20039;-66
2022/07/17 05:48:33;;;;;;;2.50;2.30;;;;;;;;;;5072613;28;20028;-65
2022/07/17 05:50:58;;;;;;;2.83;2.15;;;;;;;;;;5074367;28;20039;-66
2022/07/17 05:53:23;;;;;;;2.90;2.30;;;;;;;;;;5073448;28;20035;-66
2022/07/17 05:55:49;;;;;;;2.63;2.42;;;;;;;;;;5072215;28;20431;-66
2022/07/17 05:58:14;;;;;;;2.50;2.30;;;;;;;;;;5073267;28;20080;-66
2022/07/17 06:00:40;;;;;;;3.47;2.28;;;;;;;;;;5073403;28;20340;-66
2022/07/17 06:03:05;;;;;;;4.90;2.25;;;;;;;;;;5072070;28;20042;-66
2022/07/17 06:05:30;;;;;;;2.20;2.00;;;;;;;;;;5073832;28;20093;-66
2022/07/17 06:07:56;;;;;;;2.63;2.40;;;;;;;;;;5073482;28;20024;-66
2022/07/17 06:10:22;;;;;;;2.35;2.00;;;;;;;;;;5073674;28;20149;-66
2022/07/17 06:12:47;;;;;;;2.38;1.85;;;;;;;;;;5073896;28;20115;-66
2022/07/17 06:15:13;;;;;;;3.85;2.08;;;;;;;;;;5072761;28;20013;-66
2022/07/17 06:17:38;;;;;;;1.85;1.67;;;;;;;;;;5072498;28;20074;-66
2022/07/17 06:20:04;;;;;;;4.65;1.90;;;;;;;;;;5072700;28;20063;-66
2022/07/17 06:22:29;;;;;;;4.22;2.40;;;;;;;;;;5071836;28;20046;-66
2022/07/17 06:24:54;;;;;;;1.77;1.67;;;;;;;;;;5072398;28;20457;-66
2022/07/17 06:27:20;;;;;;;2.45;2.00;;;;;;;;;;5071666;28;20044;-64
2022/07/17 06:29:46;;;;;;;3.40;2.25;;;;;;;;;;5073096;28;20043;-64
2022/07/17 06:32:11;;;;;;;2.00;1.90;;;;;;;;;;5072652;28;20135;-65
2022/07/17 06:34:37;;;;;;;5.72;2.33;;;;;;;;;;5073153;28;20157;-64
2022/07/17 06:37:02;;;;;;;2.08;1.98;;;;;;;;;;5074655;28;20024;-64
2022/07/17 06:39:27;;;;;;;3.70;2.42;;;;;;;;;;5073425;28;20057;-64
2022/07/17 06:41:52;;;;;;;3.30;1.52;;;;;;;;;;5072222;28;20081;-64
2022/07/17 06:44:18;;;;;;;2.17;2.03;;;;;;;;;;5070866;28;20183;-63
2022/07/17 06:46:43;;;;;;;2.33;1.60;;;;;;;;;;5071249;28;20079;-66
2022/07/17 06:49:09;;;;;;;3.25;2.53;;;;;;;;;;5071614;28;20032;-66
2022/07/17 06:51:35;;;;;;;1.98;1.88;;;;;;;;;;5071072;28;20104;-65
2022/07/17 06:54:00;;;;;;;2.10;1.70;;;;;;;;;;5072542;28;20032;-66
2022/07/17 06:56:25;;;;;;;4.93;2.30;;;;;;;;;;5071463;28;20031;-64
2022/07/17 06:58:51;;;;;;;2.58;2.15;;;;;;;;;;5070521;28;20035;-65
2022/07/17 07:01:16;;;;;;;2.25;2.00;;;;;;;;;;5071034;28;20029;-65
2022/07/17 07:03:41;;;;;;;2.08;1.83;;;;;;;;;;5070547;28;20025;-65
2022/07/17 07:06:07;;;;;;;2.63;1.75;;;;;;;;;;5071914;28;20030;-64
2022/07/17 07:08:33;;;;;;;2.70;1.88;;;;;;;;;;5072117;28;20383;-64
2022/07/17 07:10:58;;;;;;;2.38;1.85;;;;;;;;;;5073540;28;20023;-64
2022/07/17 07:13:23;;;;;;;1.92;1.83;;;;;;;;;;5055329;28;20443;-65
2022/07/17 07:15:49;;;;;;;6.00;1.70;;;;;;;;;;5071956;28;20020;-66
2022/07/17 07:18:14;;;;;;;10.90;2.15;;;;;;;;;;5080468;28;20040;-66
2022/07/17 07:20:40;;;;;;;2.13;1.70;;;;;;;;;;5072761;28;20030;-66
2022/07/17 07:23:05;;;;;;;2.28;1.90;;;;;;;;;;5069855;28;20122;-67
2022/07/17 07:25:30;;;;;;;3.17;1.77;;;;;;;;;;5074821;28;20032;-65
2022/07/17 07:27:56;;;;;;;2.70;2.00;;;;;;;;;;5071200;28;20020;-66
2022/07/17 07:30:21;;;;;;;3.45;1.70;;;;;;;;;;5056140;28;20045;-66
2022/07/17 07:32:46;;;;;;;3.50;2.10;;;;;;;;;;5073938;28;20024;-65
2022/07/17 07:35:12;;;;;;;2.15;1.95;;;;;;;;;;5076227;28;20020;-66
2022/07/17 07:37:37;;;;;;;1.98;1.88;;;;;;;;;;5075182;28;20020;-66
2022/07/17 07:40:03;;;;;;;2.30;2.10;;;;;;;;;;5057477;28;20099;-66
2022/07/17 07:42:28;;;;;;;2.45;2.30;;;;;;;;;;5055973;28;20506;-66
2022/07/17 07:44:54;;;;;;;2.20;1.75;;;;;;;;;;5054290;28;20031;-65
2022/07/17 07:47:19;;;;;;;2.28;2.10;;;;;;;;;;5025200;28;20032;-66
2022/07/17 07:49:45;;;;;;;4.60;2.05;;;;;;;;;;5056502;28;20032;-66
2022/07/17 07:52:10;;;;;;;6.93;2.08;;;;;;;;;;5056335;28;20031;-65
2022/07/17 07:54:35;;;;;;;2.30;2.00;;;;;;;;;;5053898;28;20032;-65
2022/07/17 07:57:01;;;;;;;3.70;2.00;;;;;;;;;;5056954;28;20032;-65
2022/07/17 07:59:27;;;;;;;2.85;1.60;;;;;;;;;;5039849;28;20499;-66
2022/07/17 08:01:52;;;;;;;2.38;2.13;;;;;;;;;;5053992;28;20112;-64
2022/07/17 08:04:17;;;;;;;2.17;1.95;;;;;;;;;;5055282;28;20025;-66
2022/07/17 08:06:42;;;;;;;2.63;1.77;;;;;;;;;;5054191;28;20493;-65
2022/07/17 08:09:08;;;;;;;2.13;1.65;;;;;;;;;;5037183;28;20029;-65
2022/07/17 08:11:33;;;;;;;3.38;2.05;;;;;;;;;;5042493;28;20078;-65
2022/07/17 08:13:59;;;;;;;3.80;2.15;;;;;;;;;;5046325;28;20547;-64
2022/07/17 08:16:24;;;;;;;2.70;2.03;;;;;;;;;;5036293;28;20535;-65
2022/07/17 08:18:49;;;;;;;4.82;2.03;;;;;;;;;;5038543;28;20605;-65
2022/07/17 08:21:15;;;;;;;2.08;1.50;;;;;;;;;;5040027;28;20043;-65
2022/07/17 08:23:40;;;;;;;3.33;2.30;;;;;;;;;;5055806;28;20025;-65
2022/07/17 08:26:05;;;;;;;2.38;2.17;;;;;;;;;;5037349;28;20040;-65
2022/07/17 08:28:30;;;;;;;5.30;2.55;;;;;;;;;;5036951;28;20625;-65
2022/07/17 08:30:56;;;;;;;2.65;1.70;;;;;;;;;;5054355;28;20039;-65
2022/07/17 08:33:21;;;;;;;2.95;1.98;;;;;;;;;;5036392;28;20464;-65
2022/07/17 08:35:46;;;;;;;2.40;2.22;;;;;;;;;;5053871;28;20040;-65
2022/07/17 08:38:12;;;;;;;2.30;2.05;;;;;;;;;;5055257;28;20036;-65
2022/07/17 08:40:38;;;;;;;2.25;1.98;;;;;;;;;;5040151;28;20047;-65
2022/07/17 08:43:04;;;;;;;7.10;2.45;;;;;;;;;;5053695;28;20027;-64
2022/07/17 08:45:30;;;;;;;2.00;1.83;;;;;;;;;;5037514;28;20052;-66
2022/07/17 08:47:56;;;;;;;2.55;2.13;;;;;;;;;;5054577;28;20115;-60
2022/07/17 08:50:24;;;;;;;2.20;1.77;;;;;;;;;;5055352;28;20033;-59
2022/07/17 08:52:49;;;;;;;2.53;2.33;;;;;;;;;;5054213;28;20021;-68
2022/07/17 08:55:14;;;;;;;6.10;2.55;;;;;;;;;;5036972;28;20427;-70
2022/07/17 08:57:41;;;;;;;3.75;1.88;;;;;;;;;;5054639;28;20029;-67
2022/07/17 09:00:07;;;;;;;3.08;1.80;;;;;;;;;;5054289;28;20527;-66
2022/07/17 09:02:33;;;;;;;2.70;1.85;;;;;;;;;;5054129;28;20032;-65
2022/07/17 09:04:58;;;;;;;1.90;1.80;;;;;;;;;;5053993;28;20028;-67
2022/07/17 09:07:23;;;;;;;1.88;1.77;;;;;;;;;;5055513;28;20029;-67
2022/07/17 09:09:50;;;;;;;2.83;2.20;;;;;;;;;;5054651;28;20556;-66
2022/07/17 09:12:16;;;;;;;2.17;2.08;;;;;;;;;;5036884;28;20052;-67
2022/07/17 09:14:41;;;;;;;1.77;1.67;;;;;;;;;;5054642;28;20140;-67
2022/07/17 09:17:10;;;;;;;4.05;2.20;;;;;;;;;;5052819;28;20079;-67
2022/07/17 09:19:37;;;;;;;2.30;2.03;;;;;;;;;;5053165;28;20025;-67
2022/07/17 09:22:04;;;;;;;2.80;2.00;;;;;;;;;;5053985;28;20024;-68
2022/07/17 09:24:49;;;;;;;2.85;2.08;;;;;;;;;;5053389;28;20020;-68
2022/07/17 09:27:23;;;;;;;3.38;1.98;;;;;;;;;;5053129;28;20029;-67
2022/07/17 09:29:58;;;;;;;1.88;1.77;;;;;;;;;;5054721;28;20039;-67
2022/07/17 09:32:24;;;;;;;4.25;2.10;;;;;;;;;;5053266;28;20524;-67
2022/07/17 09:34:50;;;;;;;2.03;1.80;;;;;;;;;;5038025;28;20116;-66
2022/07/17 09:37:16;;;;;;;4.00;2.17;;;;;;;;;;5054141;28;20495;-66
2022/07/17 09:39:42;;;;;;;2.25;2.05;;;;;;;;;;5052601;28;20053;-66
2022/07/17 09:42:07;;;;;;;8.93;2.20;;;;;;;;;;5037705;28;20051;-66
2022/07/17 09:44:32;;;;;;;3.80;2.45;;;;;;;;;;5052114;28;20402;-67
2022/07/17 09:46:58;;;;;;;2.63;2.30;;;;;;;;;;5053761;28;20029;-66
2022/07/17 09:49:27;;;;;;;2.45;2.25;;;;;;;;;;5053605;28;20546;-67
2022/07/17 09:51:52;;;;;;;3.80;2.22;;;;;;;;;;5053125;28;20463;-67
2022/07/17 09:54:20;;;;;;;3.92;2.28;;;;;;;;;;5053979;28;20028;-66
2022/07/17 09:56:46;;;;;;;2.85;1.90;;;;;;;;;;5052915;28;20041;-67
2022/07/17 09:59:12;;;;;;;3.42;2.30;;;;;;;;;;5034848;28;20060;-67
2022/07/17 10:01:40;;;;;;;4.25;2.50;;;;;;;;;;5053608;28;20532;-67
2022/07/17 10:04:06;;;;;;;1.80;1.65;;;;;;;;;;5052952;28;20029;-67
2022/07/17 10:06:32;;;;;;;2.92;2.15;;;;;;;;;;5053125;28;20024;-65
2022/07/17 10:08:58;;;;;;;4.18;2.28;;;;;;;;;;5035048;28;20109;-66
2022/07/17 10:11:24;;;;;;;2.13;2.03;;;;;;;;;;5052901;28;20051;-65
2022/07/17 10:13:51;;;;;;;4.32;1.70;;;;;;;;;;5038222;28;20478;-65
2022/07/17 10:16:23;;;;;;;3.80;2.33;;;;;;;;;;5053319;28;20060;-67
2022/07/17 10:18:52;;;;;;;4.32;1.90;;;;;;;;;;5053389;28;20025;-66
2022/07/17 10:21:18;;;;;;;3.38;1.95;;;;;;;;;;5052270;28;20128;-65
2022/07/17 10:23:47;;;;;;;2.88;1.60;;;;;;;;;;5054527;28;20020;-65
2022/07/17 10:26:13;;;;;;;2.63;2.42;;;;;;;;;;5053346;28;20032;-66
2022/07/17 10:28:45;;;;;;;2.45;2.25;;;;;;;;;;5052911;28;20052;-68
2022/07/17 10:31:22;;;;;;;3.42;1.95;;;;;;;;;;5052003;28;20024;-66
2022/07/17 10:33:54;;;;;;;1.63;1.52;;;;;;;;;;5051612;28;20047;-66
2022/07/17 10:36:19;;;;;;;2.22;2.10;;;;;;;;;;5051434;28;20040;-66
2022/07/17 10:38:45;;;;;;;6.97;2.35;;;;;;;;;;5051549;28;20060;-68
2022/07/17 10:41:19;;;;;;;5.43;1.90;;;;;;;;;;5038482;28;20122;-65
2022/07/17 10:43:44;;;;;;;4.25;1.92;;;;;;;;;;5037867;28;20035;-65
2022/07/17 10:46:10;;;;;;;3.70;2.15;;;;;;;;;;5050593;28;20478;-66
2022/07/17 10:48:35;;;;;;;4.22;2.00;;;;;;;;;;5044065;28;20028;-66
2022/07/17 10:51:00;;;;;;;3.38;2.90;;;;;;;;;;5052536;28;20189;-66
2022/07/17 10:53:30;;;;;;;2.42;2.08;;;;;;;;;;5052645;28;20033;-66
2022/07/17 10:55:55;;;;;;;10.77;2.75;;;;;;;;;;5051499;28;20016;-66
2022/07/17 10:58:28;;;;;;;3.08;2.50;;;;;;;;;;5051811;28;20437;-65
2022/07/17 11:00:57;;;;;;;3.00;2.78;;;;;;;;;;5051423;28;20071;-66
2022/07/17 11:03:22;;;;;;;3.17;2.78;;;;;;;;;;5051781;28;20086;-66
2022/07/17 11:05:48;;;;;;;2.88;2.42;;;;;;;;;;5050931;28;20464;-65
2022/07/17 11:08:14;;;;;;;3.25;2.45;;;;;;;;;;5035307;28;20059;-66
2022/07/17 11:10:39;;;;;;;3.58;2.28;;;;;;;;;;5036906;28;20029;-66
2022/07/17 11:13:12;;;;;;;2.55;2.20;;;;;;;;;;5051702;28;20024;-66
2022/07/17 11:15:38;;;;;;;2.90;2.70;;;;;;;;;;5050043;28;20475;-65
2022/07/17 11:18:09;;;;;;;4.00;3.25;;;;;;;;;;5036199;28;20028;-65
2022/07/17 11:20:34;;;;;;;3.00;2.80;;;;;;;;;;5051477;28;20051;-66
2022/07/17 11:22:59;;;;;;;2.38;2.00;;;;;;;;;;5051603;28;20025;-66
2022/07/17 11:25:25;;;;;;;2.42;2.22;;;;;;;;;;5051881;28;20425;-67
2022/07/17 11:27:50;;;;;;;3.03;2.42;;;;;;;;;;5051261;28;20391;-66
2022/07/17 11:30:19;;;;;;;6.97;2.90;;;;;;;;;;5051890;28;20040;-66
2022/07/17 11:32:44;;;;;;;2.60;2.45;;;;;;;;;;5051100;28;20033;-67
2022/07/17 11:35:19;;;;;;;4.65;2.50;;;;;;;;;;5053188;28;20036;-67
2022/07/17 11:37:45;;;;;;;3.25;2.80;;;;;;;;;;5032314;28;20086;-67
2022/07/17 11:40:10;;;;;;;4.10;2.65;;;;;;;;;;5052323;28;20057;-66
2022/07/17 11:42:35;;;;;;;3.20;3.10;;;;;;;;;;5019359;28;20021;-66
2022/07/17 11:45:01;;;;;;;2.85;2.67;;;;;;;;;;5033968;28;20178;-68
2022/07/17 11:47:27;;;;;;;2.92;2.83;;;;;;;;;;5050649;28;20032;-65
2022/07/17 11:50:03;;;;;;;3.00;2.75;;;;;;;;;;5035163;28;20453;-66
2022/07/17 11:52:39;;;;;;;3.60;3.30;;;;;;;;;;5051413;28;20422;-64
2022/07/17 11:55:04;;;;;;;3.92;3.20;;;;;;;;;;5037846;28;20439;-66
2022/07/17 11:57:40;;;;;;;2.90;2.70;;;;;;;;;;5050599;28;20043;-65
2022/07/17 12:00:06;;;;;;;5.13;3.55;;;;;;;;;;5051218;28;20561;-65
2022/07/17 12:02:32;;;;;;;3.38;3.17;;;;;;;;;;5050939;28;20487;-65
2022/07/17 12:04:58;;;;;;;2.78;2.53;;;;;;;;;;5050281;28;20032;-66
2022/07/17 12:07:38;;;;;;;3.45;3.17;;;;;;;;;;5034658;28;20083;-65
2022/07/17 12:10:16;;;;;;;4.18;3.30;;;;;;;;;;5049946;28;20086;-74
2022/07/17 12:12:51;;;;;;;4.72;2.90;;;;;;;;;;5050020;28;20036;-70
2022/07/17 12:15:17;;;;;;;3.40;3.10;;;;;;;;;;5051740;28;20021;-73
2022/07/17 12:17:42;;;;;;;3.88;2.63;;;;;;;;;;5052845;28;20037;-73
2022/07/17 12:20:08;;;;;;;4.50;3.22;;;;;;;;;;5054552;28;20078;-72
2022/07/17 12:22:46;;;;;;;4.30;3.30;;;;;;;;;;5053901;28;20529;-73
2022/07/17 12:25:21;;;;;;;3.13;2.92;;;;;;;;;;5054086;28;20057;-72
2022/07/17 12:27:46;;;;;;;3.88;3.13;;;;;;;;;;5054481;28;20059;-73
2022/07/17 12:30:12;;;;;;;4.35;3.95;;;;;;;;;;5054761;28;20041;-72
2022/07/17 12:32:41;;;;;;;3.30;2.83;;;;;;;;;;5034172;28;20072;-71
2022/07/17 12:35:06;;;;;;;3.10;2.63;;;;;;;;;;5052339;28;20048;-70
2022/07/17 12:37:31;;;;;;;3.60;3.40;;;;;;;;;;5033987;28;20511;-66
2022/07/17 12:39:57;;;;;;;3.35;3.00;;;;;;;;;;5054820;28;20071;-67
2022/07/17 12:42:22;;;;;;;4.20;3.42;;;;;;;;;;5054554;28;20032;-66
2022/07/17 12:44:47;;;;;;;3.88;3.58;;;;;;;;;;5053592;28;20025;-66
2022/07/17 12:47:12;;;;;;;3.60;3.30;;;;;;;;;;5053089;28;20040;-67
2022/07/17 12:49:39;;;;;;;3.10;2.90;;;;;;;;;;5053636;28;20085;-67
2022/07/17 12:52:04;;;;;;;3.08;2.88;;;;;;;;;;5045043;28;20025;-67
2022/07/17 12:54:31;;;;;;;6.68;3.70;;;;;;;;;;5054794;28;20028;-70
2022/07/17 12:56:56;;;;;;;3.00;2.70;;;;;;;;;;5054100;28;20040;-71
2022/07/17 12:59:22;;;;;;;3.30;3.10;;;;;;;;;;5037318;28;20037;-71
2022/07/17 13:01:47;;;;;;;3.67;3.45;;;;;;;;;;5051818;28;20033;-71
2022/07/17 13:04:12;;;;;;;3.42;3.22;;;;;;;;;;5036657;28;20033;-71
2022/07/17 13:06:38;;;;;;;3.58;2.58;;;;;;;;;;5053930;28;20029;-71
2022/07/17 13:09:03;;;;;;;3.10;2.85;;;;;;;;;;5040406;28;20025;-71
2022/07/17 13:11:29;;;;;;;3.00;2.80;;;;;;;;;;5052742;28;20645;-71
2022/07/17 13:13:54;;;;;;;2.78;2.58;;;;;;;;;;5054289;28;20042;-71
2022/07/17 13:16:19;;;;;;;3.30;3.10;;;;;;;;;;5052662;28;20028;-69
2022/07/17 13:18:45;;;;;;;3.20;3.00;;;;;;;;;;5036672;28;20044;-71
2022/07/17 13:21:10;;;;;;;2.97;2.78;;;;;;;;;;5053841;28;20064;-71
2022/07/17 13:23:36;;;;;;;8.05;3.17;;;;;;;;;;5054502;28;20462;-73
2022/07/17 13:26:01;;;;;;;2.95;2.75;;;;;;;;;;5038744;28;20125;-72
2022/07/17 13:28:27;;;;;;;4.25;3.20;;;;;;;;;;5045553;28;20713;-72
2022/07/17 13:30:52;;;;;;;3.63;3.42;;;;;;;;;;5051231;28;20486;-70
2022/07/17 13:33:17;;;;;;;3.85;2.53;;;;;;;;;;5053092;28;20051;-66
2022/07/17 13:35:43;;;;;;;3.40;2.42;;;;;;;;;;5053220;28;20028;-72
2022/07/17 13:38:08;;;;;;;4.40;2.85;;;;;;;;;;5052850;28;20068;-71
2022/07/17 13:40:35;;;;;;;2.63;2.40;;;;;;;;;;5053365;28;20021;-73
2022/07/17 13:43:00;;;;;;;5.05;2.65;;;;;;;;;;5054075;28;20064;-70
2022/07/17 13:45:26;;;;;;;2.60;2.40;;;;;;;;;;5052754;28;20121;-72
2022/07/17 13:47:51;;;;;;;2.72;2.47;;;;;;;;;;5053617;28;20165;-72
2022/07/17 13:50:17;;;;;;;2.78;2.67;;;;;;;;;;5053385;28;20029;-72
2022/07/17 13:52:42;;;;;;;4.68;2.85;;;;;;;;;;5053114;28;20389;-72
2022/07/17 13:55:07;;;;;;;3.28;3.08;;;;;;;;;;5052318;28;20028;-73
2022/07/17 13:57:33;;;;;;;6.05;4.00;;;;;;;;;;5051677;28;20041;-72
2022/07/17 13:59:58;;;;;;;85.30;44.38;;;;;;;;;;5049885;28;20040;-73
2022/07/17 14:02:24;;;;;;;18.20;12.05;;;;;;;;;;5033305;28;20025;-73
2022/07/17 14:04:49;;;;;;;2.80;2.50;;;;;;;;;;5051443;28;20383;-73
2022/07/17 14:07:15;;;;;;;3.30;3.00;;;;;;;;;;5052658;28;20040;-72
2022/07/17 14:09:40;;;;;;;3.35;3.17;;;;;;;;;;5053439;28;20127;-72
2022/07/17 14:12:06;;;;;;;3.35;3.05;;;;;;;;;;5040720;28;20025;-72
2022/07/17 14:14:31;;;;;;;3.00;2.90;;;;;;;;;;5052147;28;20413;-72
2022/07/17 14:16:56;;;;;;;2.42;2.22;;;;;;;;;;5052396;28;20037;-73
2022/07/17 14:19:21;;;;;;;2.63;2.33;;;;;;;;;;5052946;28;20032;-72
2022/07/17 14:21:47;;;;;;;2.83;2.72;;;;;;;;;;5034036;28;20028;-73
2022/07/17 14:24:12;;;;;;;3.45;3.10;;;;;;;;;;5034779;28;20082;-73
2022/07/17 14:26:37;;;;;;;2.88;2.67;;;;;;;;;;5052676;28;20028;-72
2022/07/17 14:29:03;;;;;;;3.08;2.88;;;;;;;;;;5034852;28;20036;-67
2022/07/17 14:31:28;;;;;;;3.00;2.80;;;;;;;;;;5038121;28;20119;-71
2022/07/17 14:33:54;;;;;;;3.78;3.38;;;;;;;;;;5052217;28;20082;-71
2022/07/17 14:36:19;;;;;;;2.58;2.47;;;;;;;;;;5052506;28;20040;-71